createdAt,value
2019-05-23T00:00:52.327Z,5.33
2019-05-23T00:06:03.755Z,5.57
2019-05-23T00:11:33.028Z,5.87
2019-05-23T00:16:38.927Z,6.53
2019-05-23T00:21:42.848Z,6.27
2019-05-23T00:26:48.253Z,7.10
2019-05-23T00:32:02.758Z,7.53
2019-05-23T00:37:07.362Z,6.60
2019-05-23T00:42:17.257Z,7.20
2019-05-23T00:47:24.701Z,7.10
2019-05-23T00:52:38.328Z,7.57
2019-05-23T00:57:44.441Z,7.40
2019-05-23T01:02:49.182Z,7.40
2019-05-23T01:07:56.948Z,6.83
2019-05-23T01:13:06.673Z,7.33
2019-05-23T01:18:13.022Z,8.33
2019-05-23T01:23:18.552Z,7.63
2019-05-23T01:28:24.971Z,7.70
2019-05-23T01:33:29.293Z,8.13
2019-05-23T01:38:42.893Z,7.63
2019-05-23T01:43:48.191Z,7.80
2019-05-23T01:48:53.219Z,8.43
2019-05-23T01:53:58.510Z,8.00
2019-05-23T01:59:03.564Z,8.20
2019-05-23T02:04:09.031Z,8.43
2019-05-23T02:09:14.468Z,8.43
2019-05-23T02:14:18.375Z,8.70
2019-05-23T02:19:25.368Z,9.17
2019-05-23T02:24:29.913Z,8.23
2019-05-23T02:29:33.791Z,7.80
2019-05-23T02:34:41.763Z,8.10
2019-05-23T02:39:53.953Z,7.97
2019-05-23T02:45:00.902Z,8.77
2019-05-23T02:50:14.696Z,8.60
2019-05-23T02:55:22.173Z,8.93
2019-05-23T03:00:54.981Z,8.10
2019-05-23T03:05:59.495Z,9.00
2019-05-23T03:11:16.941Z,8.97
2019-05-23T03:16:24.348Z,9.00
2019-05-23T03:21:28.686Z,9.00
2019-05-23T03:26:51.731Z,9.27
2019-05-23T03:32:06.835Z,9.13
2019-05-23T03:37:12.169Z,8.53
2019-05-23T03:42:16.677Z,8.67
2019-05-23T03:47:20.830Z,10.50
2019-05-23T03:52:25.613Z,9.00
2019-05-23T03:57:30.078Z,9.20
2019-05-23T04:02:34.446Z,10.80
2019-05-23T04:07:38.981Z,10.07
2019-05-23T04:12:44.172Z,13.87
2019-05-23T04:17:48.228Z,8.60
2019-05-23T04:22:51.992Z,9.07
2019-05-23T04:27:56.529Z,8.80
2019-05-23T04:33:00.404Z,10.90
2019-05-23T04:38:04.708Z,22.50
2019-05-23T04:43:08.330Z,10.30
2019-05-23T04:48:12.415Z,8.83
2019-05-23T04:53:16.356Z,10.20
2019-05-23T04:58:20.606Z,11.27
2019-05-23T05:03:24.667Z,10.27
2019-05-23T05:08:28.820Z,11.50
2019-05-23T05:13:32.435Z,12.07
2019-05-23T05:18:37.049Z,11.47
2019-05-23T05:23:41.028Z,10.67
2019-05-23T05:28:44.921Z,10.63
2019-05-23T05:33:48.602Z,10.93
2019-05-23T05:38:53.038Z,11.60
2019-05-23T05:43:57.229Z,11.87
2019-05-23T05:49:02.792Z,11.30
2019-05-23T05:54:07.445Z,12.73
2019-05-23T05:59:11.395Z,13.60
2019-05-23T06:04:15.644Z,13.00
2019-05-23T06:09:21.158Z,14.20
2019-05-23T06:14:25.010Z,13.90
2019-05-23T06:19:29.753Z,13.30
2019-05-23T06:24:45.290Z,13.63
2019-05-23T06:29:39.731Z,15.33
2019-05-23T06:34:43.518Z,14.90
2019-05-23T06:39:47.471Z,14.13
2019-05-23T06:44:51.075Z,15.53
2019-05-23T06:49:54.751Z,16.80
2019-05-23T06:54:59.881Z,15.30
2019-05-23T07:00:05.604Z,16.03
2019-05-23T07:05:09.293Z,15.73
2019-05-23T07:10:13.528Z,14.37
2019-05-23T07:15:17.304Z,15.40
2019-05-23T07:20:22.271Z,15.73
2019-05-23T07:25:26.145Z,16.10
2019-05-23T07:30:30.211Z,16.80
2019-05-23T07:35:34.228Z,16.23
2019-05-23T07:40:38.193Z,16.50
2019-05-23T07:45:44.189Z,15.93
2019-05-23T07:50:47.810Z,16.20
2019-05-23T07:55:53.206Z,15.00
2019-05-23T08:01:07.709Z,14.83
2019-05-23T08:06:12.057Z,15.00
2019-05-23T08:11:15.708Z,15.93
2019-05-23T08:16:19.764Z,16.03
2019-05-23T08:21:23.527Z,15.50
2019-05-23T08:26:27.937Z,13.80
2019-05-23T08:31:32.073Z,14.23
2019-05-23T08:36:35.764Z,14.80
2019-05-23T08:41:39.687Z,11.60
2019-05-23T08:46:43.737Z,11.53
2019-05-23T08:51:47.715Z,11.20
2019-05-23T08:56:51.333Z,11.60
2019-05-23T09:01:55.006Z,11.00
2019-05-23T09:06:59.396Z,14.70
2019-05-23T09:12:04.916Z,10.83
2019-05-23T09:17:08.703Z,11.43
2019-05-23T09:22:12.402Z,9.93
2019-05-23T09:27:16.043Z,10.03
2019-05-23T09:32:19.807Z,9.80
2019-05-23T09:37:23.791Z,8.20
2019-05-23T09:42:27.378Z,9.10
2019-05-23T09:47:31.363Z,8.63
2019-05-23T09:52:35.395Z,6.63
2019-05-23T09:57:39.150Z,7.70
2019-05-23T10:02:42.988Z,8.17
2019-05-23T10:07:46.684Z,9.13
2019-05-23T10:12:50.302Z,9.20
2019-05-23T10:17:53.901Z,9.87
2019-05-23T10:22:57.591Z,9.57
2019-05-23T10:28:01.329Z,9.03
2019-05-23T10:33:11.609Z,9.43
2019-05-23T10:38:11.018Z,9.00
2019-05-23T10:43:14.790Z,9.20
2019-05-23T10:48:21.199Z,8.90
2019-05-23T10:53:25.059Z,8.77
2019-05-23T10:58:28.811Z,8.80
2019-05-23T11:03:32.554Z,9.37
2019-05-23T11:08:36.778Z,8.00
2019-05-23T11:13:40.879Z,7.87
2019-05-23T11:18:44.743Z,6.60
2019-05-23T11:23:50.350Z,4.90
2019-05-23T11:28:54.279Z,6.70
2019-05-23T11:33:57.971Z,4.63
2019-05-23T11:39:01.665Z,4.90
2019-05-23T11:44:05.995Z,5.70
2019-05-23T11:49:09.772Z,5.60
2019-05-23T11:54:13.612Z,4.63
2019-05-23T11:59:17.380Z,3.10
2019-05-23T12:04:22.066Z,3.23
2019-05-23T12:09:27.683Z,3.47
2019-05-23T12:14:31.481Z,2.97
2019-05-23T12:19:35.298Z,2.83
2019-05-23T12:24:39.456Z,3.00
2019-05-23T12:29:43.385Z,2.20
2019-05-23T12:35:08.022Z,2.70
2019-05-23T12:39:52.746Z,3.23
2019-05-23T12:44:56.456Z,2.67
2019-05-23T12:50:01.934Z,2.77
2019-05-23T12:55:05.784Z,3.23
2019-05-23T13:00:27.870Z,2.20
2019-05-23T13:05:32.008Z,2.37
2019-05-23T13:10:35.669Z,2.37
2019-05-23T13:15:39.768Z,2.57
2019-05-23T13:20:43.690Z,3.07
2019-05-23T13:25:47.486Z,3.40
2019-05-23T13:30:51.778Z,2.83
2019-05-23T13:35:55.535Z,3.27
2019-05-23T13:40:59.226Z,3.23
2019-05-23T13:46:02.980Z,3.20
2019-05-23T13:51:06.609Z,4.13
2019-05-23T13:56:10.288Z,3.80
2019-05-23T14:01:14.179Z,3.50
2019-05-23T14:06:17.844Z,3.00
2019-05-23T14:11:21.580Z,2.50
2019-05-23T14:16:27.009Z,2.70
2019-05-23T14:21:32.399Z,3.10
2019-05-23T14:26:37.893Z,2.97
2019-05-23T14:31:43.155Z,2.73
2019-05-23T14:37:00.475Z,3.40
2019-05-23T14:42:08.573Z,3.90
2019-05-23T14:47:21.666Z,3.87
2019-05-23T14:52:27.995Z,3.30
2019-05-23T14:57:32.286Z,3.80
2019-05-23T15:02:36.136Z,3.50
2019-05-23T15:07:39.897Z,3.07
2019-05-23T15:12:43.575Z,3.53
2019-05-23T15:17:47.280Z,3.30
2019-05-23T15:22:51.435Z,2.30
2019-05-23T15:27:55.395Z,2.70
2019-05-23T15:32:59.091Z,2.80
2019-05-23T15:38:02.966Z,2.90
2019-05-23T15:43:09.725Z,2.43
2019-05-23T15:48:12.236Z,2.70
2019-05-23T15:53:26.392Z,3.17
2019-05-23T15:58:31.795Z,2.90
2019-05-23T16:03:37.055Z,2.97
2019-05-23T16:08:40.934Z,3.17
2019-05-23T16:13:44.680Z,2.80
2019-05-23T16:18:48.490Z,2.97
2019-05-23T16:23:52.247Z,3.00
2019-05-23T16:28:55.965Z,3.10
2019-05-23T16:33:59.638Z,3.50
2019-05-23T16:39:03.358Z,2.97
2019-05-23T16:44:07.516Z,3.30
2019-05-23T16:49:11.202Z,2.33
2019-05-23T16:54:16.539Z,2.97
2019-05-23T16:59:21.858Z,2.80
2019-05-23T17:04:35.947Z,2.70
2019-05-23T17:09:43.948Z,2.97
2019-05-23T17:15:05.566Z,2.90
2019-05-23T17:20:20.104Z,3.10
2019-05-23T17:25:42.214Z,2.40
2019-05-23T17:30:50.743Z,2.53
2019-05-23T17:35:54.618Z,2.43
2019-05-23T17:40:58.518Z,2.20
2019-05-23T17:46:02.619Z,2.70
2019-05-23T17:51:06.291Z,2.80
2019-05-23T17:56:10.452Z,2.43
2019-05-23T18:01:14.620Z,2.80
2019-05-23T18:06:18.304Z,2.50
2019-05-23T18:11:21.917Z,3.00
2019-05-23T18:16:25.575Z,3.00
2019-05-23T18:21:29.314Z,4.87
2019-05-23T18:26:33.030Z,16.33
2019-05-23T18:31:38.411Z,56.20
2019-05-23T18:36:42.546Z,17.43
2019-05-23T18:41:46.394Z,10.60
2019-05-23T18:46:57.870Z,3.93
2019-05-23T18:52:01.663Z,4.23
2019-05-23T18:57:05.337Z,6.60
2019-05-23T19:02:09.759Z,5.80
2019-05-23T19:07:13.543Z,4.13
2019-05-23T19:12:17.409Z,2.97
2019-05-23T19:17:21.442Z,3.00
2019-05-23T19:22:25.190Z,6.00
2019-05-23T19:27:28.938Z,3.40
2019-05-23T19:32:32.603Z,3.33
2019-05-23T19:37:36.440Z,3.10
2019-05-23T19:42:40.914Z,2.90
2019-05-23T19:47:44.523Z,3.00
2019-05-23T19:52:48.846Z,3.40
2019-05-23T19:57:52.440Z,3.40
2019-05-23T20:03:03.903Z,3.10
2019-05-23T20:08:07.042Z,3.40
2019-05-23T20:13:10.883Z,3.30
2019-05-23T20:18:15.432Z,3.57
2019-05-23T20:23:19.503Z,4.10
2019-05-23T20:28:23.488Z,3.60
2019-05-23T20:33:27.233Z,11.40
2019-05-23T20:38:30.919Z,6.27
2019-05-23T20:43:34.586Z,4.13
2019-05-23T20:48:38.557Z,4.47
2019-05-23T20:53:42.789Z,4.00
2019-05-23T20:58:46.381Z,4.30
2019-05-23T21:03:51.356Z,4.17
2019-05-23T21:08:55.014Z,5.50
2019-05-23T21:14:00.836Z,4.57
2019-05-23T21:19:04.572Z,5.60
2019-05-23T21:24:09.935Z,4.90
2019-05-23T21:29:16.413Z,5.70
2019-05-23T21:34:22.250Z,4.97
2019-05-23T21:39:28.961Z,6.00
2019-05-23T21:44:32.696Z,5.60
2019-05-23T21:49:36.306Z,5.30
2019-05-23T21:54:39.914Z,5.53
2019-05-23T21:59:43.508Z,5.63
2019-05-23T22:04:48.827Z,6.10
2019-05-23T22:09:53.168Z,5.03
2019-05-23T22:14:59.482Z,5.40
2019-05-23T22:20:04.223Z,5.40
2019-05-23T22:25:31.611Z,5.40
2019-05-23T22:30:35.844Z,4.97
2019-05-23T22:35:39.527Z,5.87
2019-05-23T22:40:43.136Z,5.60
2019-05-23T22:45:46.914Z,5.67
2019-05-23T22:50:52.377Z,5.27
2019-05-23T22:55:57.859Z,5.63
2019-05-23T23:01:01.379Z,4.60
2019-05-23T23:06:05.425Z,5.60
2019-05-23T23:11:10.207Z,5.53
2019-05-23T23:16:13.822Z,5.40
2019-05-23T23:21:17.496Z,5.40
2019-05-23T23:26:21.108Z,4.90
2019-05-23T23:31:28.189Z,5.33
2019-05-23T23:36:32.832Z,5.70
2019-05-23T23:41:36.395Z,5.53
2019-05-23T23:46:58.230Z,5.30
2019-05-23T23:52:19.834Z,5.47
2019-05-23T23:57:41.370Z,5.60
